createdAt,value
2019-04-26T00:00:49.281Z,982.59
2019-04-26T00:01:49.409Z,982.52
2019-04-26T00:02:49.550Z,982.50
2019-04-26T00:03:49.675Z,982.45
2019-04-26T00:04:49.820Z,982.43
2019-04-26T00:05:49.945Z,982.44
2019-04-26T00:06:50.083Z,982.42
2019-04-26T00:07:50.215Z,982.46
2019-04-26T00:08:50.347Z,982.44
2019-04-26T00:09:50.476Z,982.46
2019-04-26T00:10:50.612Z,982.43
2019-04-26T00:11:50.753Z,982.43
2019-04-26T00:12:50.874Z,982.39
2019-04-26T00:13:51.008Z,982.40
2019-04-26T00:14:51.144Z,982.35
2019-04-26T00:15:51.276Z,982.36
2019-04-26T00:16:51.406Z,982.33
2019-04-26T00:17:51.537Z,982.29
2019-04-26T00:18:51.667Z,982.30
2019-04-26T00:19:51.797Z,982.28
2019-04-26T00:20:51.945Z,982.26
2019-04-26T00:21:52.068Z,982.25
2019-04-26T00:22:52.197Z,982.25
2019-04-26T00:23:52.325Z,982.25
2019-04-26T00:24:52.455Z,982.25
2019-04-26T00:25:52.590Z,982.26
2019-04-26T00:26:52.720Z,982.26
2019-04-26T00:27:52.859Z,982.31
2019-04-26T00:28:52.982Z,982.27
2019-04-26T00:29:53.118Z,982.36
2019-04-26T00:30:53.261Z,982.39
2019-04-26T00:31:53.410Z,982.37
2019-04-26T00:32:53.513Z,982.34
2019-04-26T00:33:53.637Z,982.36
2019-04-26T00:34:53.773Z,982.35
2019-04-26T00:35:53.909Z,982.34
2019-04-26T00:36:54.035Z,982.33
2019-04-26T00:37:54.179Z,982.29
2019-04-26T00:38:54.298Z,982.22
2019-04-26T00:39:54.427Z,982.25
2019-04-26T00:40:54.577Z,982.25
2019-04-26T00:41:54.712Z,982.26
2019-04-26T00:42:57.522Z,982.29
2019-04-26T00:43:54.972Z,982.27
2019-04-26T00:44:55.104Z,982.29
2019-04-26T00:45:55.235Z,982.32
2019-04-26T00:46:55.363Z,982.28
2019-04-26T00:47:55.505Z,982.26
2019-04-26T00:48:55.629Z,982.24
2019-04-26T00:49:55.761Z,982.18
2019-04-26T00:50:55.897Z,982.17
2019-04-26T00:51:56.020Z,982.15
2019-04-26T00:52:56.202Z,982.15
2019-04-26T00:53:56.294Z,982.14
2019-04-26T00:54:56.433Z,982.17
2019-04-26T00:55:56.558Z,982.22
2019-04-26T00:56:56.691Z,982.20
2019-04-26T00:57:56.849Z,982.30
2019-04-26T00:58:56.964Z,982.30
2019-04-26T00:59:57.097Z,982.36
2019-04-26T01:00:57.231Z,982.40
2019-04-26T01:01:57.371Z,982.47
2019-04-26T01:02:57.481Z,982.56
2019-04-26T01:03:57.615Z,982.63
2019-04-26T01:04:57.746Z,982.66
2019-04-26T01:06:00.237Z,982.72
2019-04-26T01:06:58.024Z,982.75
2019-04-26T01:07:58.155Z,982.73
2019-04-26T01:08:58.358Z,982.81
2019-04-26T01:09:58.454Z,982.79
2019-04-26T01:10:58.582Z,982.82
2019-04-26T01:11:58.714Z,982.79
2019-04-26T01:12:58.843Z,982.74
2019-04-26T01:13:58.958Z,982.73
2019-04-26T01:14:59.093Z,982.73
2019-04-26T01:15:59.228Z,982.68
2019-04-26T01:16:59.441Z,982.70
2019-04-26T01:17:59.479Z,982.72
2019-04-26T01:18:59.609Z,982.77
2019-04-26T01:19:59.735Z,982.81
2019-04-26T01:20:59.893Z,982.80
2019-04-26T01:22:00.013Z,982.81
2019-04-26T01:23:00.150Z,982.80
2019-04-26T01:24:00.300Z,982.83
2019-04-26T01:25:00.430Z,982.85
2019-04-26T01:26:00.563Z,982.82
2019-04-26T01:27:00.692Z,982.83
2019-04-26T01:28:00.856Z,982.83
2019-04-26T01:29:01.098Z,982.82
2019-04-26T01:30:01.100Z,982.84
2019-04-26T01:31:01.232Z,982.83
2019-04-26T01:32:01.388Z,982.85
2019-04-26T01:33:01.514Z,982.82
2019-04-26T01:34:01.643Z,982.81
2019-04-26T01:35:01.765Z,982.79
2019-04-26T01:36:12.424Z,982.78
2019-04-26T01:37:02.027Z,982.77
2019-04-26T01:38:02.157Z,982.75
2019-04-26T01:39:02.298Z,982.78
2019-04-26T01:40:02.428Z,982.81
2019-04-26T01:41:02.577Z,982.80
2019-04-26T01:42:02.700Z,982.80
2019-04-26T01:43:02.844Z,982.85
2019-04-26T01:44:02.972Z,982.85
2019-04-26T01:45:03.115Z,982.92
2019-04-26T01:46:03.250Z,982.94
2019-04-26T01:47:03.403Z,982.95
2019-04-26T01:48:03.541Z,982.97
2019-04-26T01:49:03.670Z,982.96
2019-04-26T01:50:03.810Z,982.97
2019-04-26T01:51:03.954Z,982.96
2019-04-26T01:52:04.074Z,982.97
2019-04-26T01:53:04.193Z,982.98
2019-04-26T01:54:04.319Z,982.96
2019-04-26T01:55:04.466Z,982.97
2019-04-26T01:56:04.595Z,982.97
2019-04-26T01:57:04.728Z,982.96
2019-04-26T01:58:04.859Z,982.98
2019-04-26T01:59:05.047Z,983.01
2019-04-26T02:00:05.129Z,983.04
2019-04-26T02:01:05.308Z,983.09
2019-04-26T02:02:05.404Z,983.12
2019-04-26T02:03:05.545Z,983.17
2019-04-26T02:04:05.682Z,983.14
2019-04-26T02:05:05.819Z,983.14
2019-04-26T02:06:05.935Z,983.09
2019-04-26T02:07:06.099Z,983.11
2019-04-26T02:08:06.265Z,983.08
2019-04-26T02:09:06.400Z,983.08
2019-04-26T02:10:06.537Z,983.05
2019-04-26T02:11:06.683Z,983.05
2019-04-26T02:12:06.921Z,983.06
2019-04-26T02:13:06.921Z,983.16
2019-04-26T02:14:07.052Z,983.17
2019-04-26T02:15:07.214Z,983.18
2019-04-26T02:16:07.340Z,983.24
2019-04-26T02:17:07.475Z,983.20
2019-04-26T02:18:07.603Z,983.20
2019-04-26T02:19:07.746Z,983.21
2019-04-26T02:20:07.873Z,983.19
2019-04-26T02:21:08.007Z,983.15
2019-04-26T02:22:08.138Z,983.14
2019-04-26T02:23:08.289Z,983.11
2019-04-26T02:24:08.413Z,983.12
2019-04-26T02:25:08.548Z,983.13
2019-04-26T02:26:08.685Z,983.17
2019-04-26T02:27:08.817Z,983.21
2019-04-26T02:28:08.980Z,983.25
2019-04-26T02:29:09.120Z,983.30
2019-04-26T02:30:09.268Z,983.32
2019-04-26T02:31:09.393Z,983.34
2019-04-26T02:32:09.528Z,983.37
2019-04-26T02:33:09.655Z,983.37
2019-04-26T02:34:09.843Z,983.27
2019-04-26T02:35:09.941Z,983.23
2019-04-26T02:36:10.073Z,983.11
2019-04-26T02:37:10.225Z,983.04
2019-04-26T02:38:10.351Z,983.00
2019-04-26T02:39:10.484Z,982.99
2019-04-26T02:40:10.610Z,983.09
2019-04-26T02:41:10.747Z,983.11
2019-04-26T02:42:10.876Z,983.16
2019-04-26T02:43:11.009Z,983.22
2019-04-26T02:44:11.156Z,983.22
2019-04-26T02:45:11.287Z,983.27
2019-04-26T02:46:11.417Z,983.27
2019-04-26T02:47:11.545Z,983.27
2019-04-26T02:48:11.704Z,983.33
2019-04-26T02:49:11.839Z,983.39
2019-04-26T02:50:11.967Z,983.45
2019-04-26T02:51:12.099Z,983.42
2019-04-26T02:52:12.234Z,983.42
2019-04-26T02:53:12.364Z,983.38
2019-04-26T02:54:12.495Z,983.28
2019-04-26T02:55:12.633Z,983.21
2019-04-26T02:56:12.761Z,983.16
2019-04-26T02:57:12.890Z,983.09
2019-04-26T02:58:13.006Z,983.13
2019-04-26T02:59:13.161Z,983.16
2019-04-26T03:00:13.316Z,983.18
2019-04-26T03:01:13.414Z,983.24
2019-04-26T03:02:13.545Z,983.29
2019-04-26T03:03:13.686Z,983.33
2019-04-26T03:04:13.813Z,983.32
2019-04-26T03:05:13.945Z,983.34
2019-04-26T03:06:14.088Z,983.34
2019-04-26T03:07:14.214Z,983.34
2019-04-26T03:08:14.371Z,983.31
2019-04-26T03:09:14.487Z,983.26
2019-04-26T03:10:14.614Z,983.22
2019-04-26T03:11:17.235Z,983.19
2019-04-26T03:12:14.876Z,983.19
2019-04-26T03:13:15.020Z,983.23
2019-04-26T03:14:15.148Z,983.25
2019-04-26T03:15:15.292Z,983.32
2019-04-26T03:16:15.406Z,983.35
2019-04-26T03:17:15.543Z,983.43
2019-04-26T03:18:15.672Z,983.40
2019-04-26T03:19:15.801Z,983.45
2019-04-26T03:20:15.934Z,983.48
2019-04-26T03:21:16.062Z,983.50
2019-04-26T03:22:16.192Z,983.48
2019-04-26T03:23:16.334Z,983.45
2019-04-26T03:24:16.457Z,983.49
2019-04-26T03:25:16.599Z,983.46
2019-04-26T03:26:16.726Z,983.48
2019-04-26T03:27:16.864Z,983.53
2019-04-26T03:28:16.982Z,983.50
2019-04-26T03:29:17.112Z,983.52
2019-04-26T03:30:21.133Z,983.48
2019-04-26T03:31:17.627Z,983.45
2019-04-26T03:32:17.590Z,983.43
2019-04-26T03:33:17.728Z,983.40
2019-04-26T03:34:17.986Z,983.46
2019-04-26T03:35:17.916Z,983.52
2019-04-26T03:36:18.036Z,983.53
2019-04-26T03:37:20.605Z,983.56
2019-04-26T03:38:18.309Z,983.58
2019-04-26T03:39:18.455Z,983.63
2019-04-26T03:40:18.583Z,983.68
2019-04-26T03:41:18.706Z,983.77
2019-04-26T03:42:18.884Z,983.83
2019-04-26T03:43:19.007Z,983.86
2019-04-26T03:44:19.140Z,983.86
2019-04-26T03:45:19.259Z,983.83
2019-04-26T03:46:19.394Z,983.80
2019-04-26T03:47:19.526Z,983.76
2019-04-26T03:48:19.648Z,983.82
2019-04-26T03:49:19.863Z,983.78
2019-04-26T03:50:19.941Z,983.78
2019-04-26T03:51:20.086Z,983.80
2019-04-26T03:52:20.197Z,983.80
2019-04-26T03:53:20.325Z,983.87
2019-04-26T03:54:20.448Z,983.88
2019-04-26T03:55:20.576Z,983.93
2019-04-26T03:56:20.702Z,983.99
2019-04-26T03:57:20.829Z,984.08
2019-04-26T03:58:20.984Z,984.15
2019-04-26T03:59:21.099Z,984.17
2019-04-26T04:00:21.226Z,984.18
2019-04-26T04:01:21.376Z,984.17
2019-04-26T04:02:21.517Z,984.14
2019-04-26T04:03:21.645Z,984.09
2019-04-26T04:04:21.777Z,984.05
2019-04-26T04:05:21.942Z,984.04
2019-04-26T04:06:22.071Z,984.00
2019-04-26T04:07:36.281Z,983.98
2019-04-26T04:08:22.332Z,983.93
2019-04-26T04:09:22.496Z,983.86
2019-04-26T04:10:22.605Z,983.82
2019-04-26T04:11:22.753Z,983.80
2019-04-26T04:12:23.105Z,983.76
2019-04-26T04:13:22.991Z,983.71
2019-04-26T04:14:23.275Z,983.63
2019-04-26T04:15:23.286Z,983.62
2019-04-26T04:16:23.394Z,983.55
2019-04-26T04:17:23.527Z,983.56
2019-04-26T04:18:23.664Z,983.61
2019-04-26T04:19:23.792Z,983.65
2019-04-26T04:20:23.919Z,983.75
2019-04-26T04:21:24.079Z,983.85
2019-04-26T04:22:24.291Z,983.95
2019-04-26T04:23:24.272Z,984.01
2019-04-26T04:24:24.399Z,984.05
2019-04-26T04:25:24.556Z,984.02
2019-04-26T04:26:24.684Z,984.00
2019-04-26T04:27:24.838Z,984.02
2019-04-26T04:28:24.946Z,984.00
2019-04-26T04:29:39.100Z,983.99
2019-04-26T04:30:25.213Z,983.92
2019-04-26T04:31:25.349Z,983.87
2019-04-26T04:32:25.478Z,983.85
2019-04-26T04:33:25.611Z,983.87
2019-04-26T04:34:25.741Z,983.89
2019-04-26T04:35:25.882Z,983.89
2019-04-26T04:36:26.013Z,983.94
2019-04-26T04:37:26.162Z,983.95
2019-04-26T04:38:26.287Z,983.91
2019-04-26T04:39:26.421Z,983.99
2019-04-26T04:40:26.550Z,984.01
2019-04-26T04:41:26.717Z,984.02
2019-04-26T04:42:26.841Z,984.05
2019-04-26T04:43:27.094Z,984.05
2019-04-26T04:44:27.109Z,984.05
2019-04-26T04:45:27.256Z,984.06
2019-04-26T04:46:27.391Z,984.04
2019-04-26T04:47:31.155Z,984.10
2019-04-26T04:48:27.647Z,984.16
2019-04-26T04:49:27.807Z,984.25
2019-04-26T04:50:27.928Z,984.30
2019-04-26T04:51:28.050Z,984.38
2019-04-26T04:52:28.189Z,984.33
2019-04-26T04:53:28.316Z,984.29
2019-04-26T04:54:28.448Z,984.19
2019-04-26T04:55:28.579Z,984.22
2019-04-26T04:56:28.725Z,984.19
2019-04-26T04:57:28.854Z,984.20
2019-04-26T04:58:28.985Z,984.17
2019-04-26T04:59:29.128Z,984.13
2019-04-26T05:00:29.257Z,984.09
2019-04-26T05:01:31.890Z,984.05
2019-04-26T05:02:29.563Z,984.01
2019-04-26T05:03:29.686Z,984.00
2019-04-26T05:04:29.817Z,983.99
2019-04-26T05:05:29.951Z,984.00
2019-04-26T05:06:30.091Z,984.03
2019-04-26T05:07:30.223Z,984.07
2019-04-26T05:08:30.352Z,984.09
2019-04-26T05:09:30.531Z,984.11
2019-04-26T05:10:30.663Z,984.16
2019-04-26T05:11:30.799Z,984.17
2019-04-26T05:12:30.928Z,984.17
2019-04-26T05:13:31.079Z,984.17
2019-04-26T05:14:31.214Z,984.17
2019-04-26T05:15:31.349Z,984.06
2019-04-26T05:16:33.042Z,984.08
2019-04-26T05:17:31.631Z,984.09
2019-04-26T05:18:31.764Z,984.13
2019-04-26T05:19:31.895Z,984.15
2019-04-26T05:20:32.057Z,984.19
2019-04-26T05:21:32.189Z,984.24
2019-04-26T05:22:32.316Z,984.24
2019-04-26T05:23:32.450Z,984.30
2019-04-26T05:24:32.595Z,984.29
2019-04-26T05:25:32.722Z,984.27
2019-04-26T05:26:32.853Z,984.18
2019-04-26T05:27:32.988Z,984.15
2019-04-26T05:28:33.156Z,984.16
2019-04-26T05:29:33.278Z,984.16
2019-04-26T05:30:33.408Z,984.21
2019-04-26T05:31:33.530Z,984.19
2019-04-26T05:32:33.696Z,984.22
2019-04-26T05:33:33.818Z,984.20
2019-04-26T05:34:33.954Z,984.30
2019-04-26T05:35:34.094Z,984.35
2019-04-26T05:36:34.261Z,984.44
2019-04-26T05:37:37.028Z,984.53
2019-04-26T05:38:34.451Z,984.59
2019-04-26T05:39:34.610Z,984.66
2019-04-26T05:40:34.737Z,984.62
2019-04-26T05:41:34.859Z,984.63
2019-04-26T05:42:34.987Z,984.60
2019-04-26T05:43:35.113Z,984.56
2019-04-26T05:44:35.262Z,984.58
2019-04-26T05:45:35.399Z,984.66
2019-04-26T05:46:35.522Z,984.67
2019-04-26T05:47:35.651Z,984.66
2019-04-26T05:48:35.791Z,984.67
2019-04-26T05:49:35.921Z,984.64
2019-04-26T05:50:36.049Z,984.62
2019-04-26T05:51:36.182Z,984.55
2019-04-26T05:52:36.314Z,984.54
2019-04-26T05:53:36.438Z,984.52
2019-04-26T05:54:36.569Z,984.52
2019-04-26T05:55:36.704Z,984.50
2019-04-26T05:56:36.853Z,984.51
2019-04-26T05:57:36.999Z,984.57
2019-04-26T05:58:37.112Z,984.54
2019-04-26T05:59:37.268Z,984.56
2019-04-26T06:00:37.419Z,984.51
2019-04-26T06:01:37.563Z,984.50
2019-04-26T06:02:37.678Z,984.48
2019-04-26T06:03:37.825Z,984.50
2019-04-26T06:04:38.058Z,984.52
2019-04-26T06:05:38.072Z,984.53
2019-04-26T06:06:38.200Z,984.49
2019-04-26T06:07:38.349Z,984.53
2019-04-26T06:08:38.496Z,984.44
2019-04-26T06:09:38.633Z,984.42
2019-04-26T06:10:38.771Z,984.36
2019-04-26T06:11:38.925Z,984.34
2019-04-26T06:12:39.054Z,984.34
2019-04-26T06:13:39.187Z,984.32
2019-04-26T06:14:39.309Z,984.36
2019-04-26T06:15:39.471Z,984.41
2019-04-26T06:16:39.598Z,984.40
2019-04-26T06:17:39.756Z,984.40
2019-04-26T06:18:39.893Z,984.38
2019-04-26T06:19:40.019Z,984.34
2019-04-26T06:20:40.174Z,984.36
2019-04-26T06:21:40.304Z,984.37
2019-04-26T06:22:40.437Z,984.39
2019-04-26T06:23:40.571Z,984.40
2019-04-26T06:24:40.704Z,984.46
2019-04-26T06:25:40.831Z,984.52
2019-04-26T06:26:40.957Z,984.53
2019-04-26T06:27:41.086Z,984.56
2019-04-26T06:28:41.251Z,984.55
2019-04-26T06:29:41.382Z,984.54
2019-04-26T06:30:45.648Z,984.53
2019-04-26T06:31:41.636Z,984.56
2019-04-26T06:32:41.909Z,984.61
2019-04-26T06:33:41.918Z,984.63
2019-04-26T06:34:42.054Z,984.71
2019-04-26T06:35:42.188Z,984.71
2019-04-26T06:36:42.333Z,984.69
2019-04-26T06:37:42.485Z,984.68
2019-04-26T06:38:43.928Z,984.67
2019-04-26T06:39:42.727Z,984.65
2019-04-26T06:40:42.879Z,984.62
2019-04-26T06:41:43.019Z,984.62
2019-04-26T06:42:43.144Z,984.61
2019-04-26T06:43:43.282Z,984.65
2019-04-26T06:44:43.424Z,984.62
2019-04-26T06:45:43.549Z,984.63
2019-04-26T06:46:43.688Z,984.67
2019-04-26T06:47:43.815Z,984.74
2019-04-26T06:48:43.970Z,984.79
2019-04-26T06:49:44.097Z,984.81
2019-04-26T06:50:44.226Z,984.80
2019-04-26T06:51:44.363Z,984.78
2019-04-26T06:52:44.510Z,984.80
2019-04-26T06:53:44.643Z,984.84
2019-04-26T06:54:44.783Z,984.81
2019-04-26T06:55:44.920Z,984.80
2019-04-26T06:56:45.043Z,984.79
2019-04-26T06:57:45.176Z,984.76
2019-04-26T06:58:45.312Z,984.77
2019-04-26T06:59:45.462Z,984.75
2019-04-26T07:00:45.593Z,984.80
2019-04-26T07:01:45.716Z,984.90
2019-04-26T07:02:45.847Z,984.94
2019-04-26T07:03:45.997Z,984.97
2019-04-26T07:04:46.134Z,985.02
2019-04-26T07:05:46.268Z,985.07
2019-04-26T07:06:46.395Z,985.12
2019-04-26T07:07:46.579Z,985.13
2019-04-26T07:08:56.683Z,985.15
2019-04-26T07:09:46.800Z,985.19
2019-04-26T07:10:46.967Z,985.24
2019-04-26T07:11:47.097Z,985.22
2019-04-26T07:12:47.212Z,985.25
2019-04-26T07:13:47.338Z,985.25
2019-04-26T07:14:47.475Z,985.29
2019-04-26T07:15:47.647Z,985.42
2019-04-26T07:16:47.773Z,985.45
2019-04-26T07:17:47.904Z,985.51
2019-04-26T07:18:48.038Z,985.47
2019-04-26T07:19:48.181Z,985.51
2019-04-26T07:20:48.314Z,985.47
2019-04-26T07:21:48.449Z,985.47
2019-04-26T07:22:48.607Z,985.49
2019-04-26T07:23:48.738Z,985.53
2019-04-26T07:24:48.869Z,985.54
2019-04-26T07:25:49.033Z,985.56
2019-04-26T07:26:49.163Z,985.51
2019-04-26T07:27:49.328Z,985.65
2019-04-26T07:28:49.436Z,985.61
2019-04-26T07:29:49.575Z,985.62
2019-04-26T07:30:49.713Z,985.63
2019-04-26T07:31:49.825Z,985.59
2019-04-26T07:32:49.951Z,985.57
2019-04-26T07:33:50.111Z,985.57
2019-04-26T07:34:50.330Z,985.55
2019-04-26T07:35:50.356Z,985.58
2019-04-26T07:36:50.477Z,985.61
2019-04-26T07:37:50.628Z,985.53
2019-04-26T07:38:50.764Z,985.52
2019-04-26T07:39:50.891Z,985.47
2019-04-26T07:40:51.036Z,985.48
2019-04-26T07:41:51.484Z,985.46
2019-04-26T07:42:51.299Z,985.46
2019-04-26T07:43:51.443Z,985.52
2019-04-26T07:44:51.597Z,985.48
2019-04-26T07:45:51.738Z,985.48
2019-04-26T07:46:51.875Z,985.48
2019-04-26T07:47:52.000Z,985.47
2019-04-26T07:48:52.126Z,985.46
2019-04-26T07:49:52.252Z,985.46
2019-04-26T07:50:52.385Z,985.48
2019-04-26T07:51:52.525Z,985.48
2019-04-26T07:52:52.679Z,985.48
2019-04-26T07:53:52.803Z,985.48
2019-04-26T07:54:52.939Z,985.46
2019-04-26T07:55:53.072Z,985.46
2019-04-26T07:56:53.223Z,985.54
2019-04-26T07:57:53.357Z,985.51
2019-04-26T07:58:53.477Z,985.56
2019-04-26T07:59:53.606Z,985.52
2019-04-26T08:00:53.771Z,985.55
2019-04-26T08:01:53.927Z,985.63
2019-04-26T08:02:54.007Z,985.63
2019-04-26T08:03:54.142Z,985.68
2019-04-26T08:04:54.277Z,985.71
2019-04-26T08:05:54.540Z,985.69
2019-04-26T08:06:54.547Z,985.71
2019-04-26T08:07:54.671Z,985.71
2019-04-26T08:08:54.835Z,985.78
2019-04-26T08:09:59.680Z,985.78
2019-04-26T08:10:55.075Z,985.79
2019-04-26T08:11:55.203Z,985.76
2019-04-26T08:12:55.346Z,985.74
2019-04-26T08:13:55.509Z,985.67
2019-04-26T08:14:55.636Z,985.69
2019-04-26T08:15:55.816Z,985.69
2019-04-26T08:16:55.925Z,985.75
2019-04-26T08:17:56.168Z,985.74
2019-04-26T08:18:56.159Z,985.77
2019-04-26T08:19:57.495Z,985.78
2019-04-26T08:20:56.458Z,985.80
2019-04-26T08:22:11.163Z,985.80
2019-04-26T08:22:56.689Z,985.87
2019-04-26T08:23:57.833Z,985.84
2019-04-26T08:24:56.989Z,985.81
2019-04-26T08:25:57.115Z,985.83
2019-04-26T08:27:08.236Z,985.86
2019-04-26T08:27:57.375Z,985.80
2019-04-26T08:29:00.556Z,985.86
2019-04-26T08:29:57.769Z,985.78
2019-04-26T08:30:57.763Z,985.83
2019-04-26T08:31:58.832Z,985.84
2019-04-26T08:32:58.052Z,985.91
2019-04-26T08:33:58.178Z,985.93
2019-04-26T08:34:58.319Z,985.91
2019-04-26T08:35:58.455Z,985.93
2019-04-26T08:37:01.803Z,985.90
2019-04-26T08:37:58.741Z,985.98
2019-04-26T08:38:58.867Z,985.99
2019-04-26T08:39:59.445Z,986.00
2019-04-26T08:41:00.355Z,986.06
2019-04-26T08:41:59.376Z,986.05
2019-04-26T08:42:59.382Z,986.09
2019-04-26T08:43:59.817Z,986.09
2019-04-26T08:44:59.652Z,986.15
2019-04-26T08:46:03.233Z,986.04
2019-04-26T08:46:59.922Z,986.03
2019-04-26T08:48:00.037Z,985.99
2019-04-26T08:49:02.094Z,985.99
2019-04-26T08:50:00.334Z,985.97
2019-04-26T08:51:00.478Z,985.95
2019-04-26T08:52:00.605Z,985.95
2019-04-26T08:53:00.742Z,985.97
2019-04-26T08:54:00.871Z,986.04
2019-04-26T08:55:01.005Z,986.09
2019-04-26T08:56:01.128Z,986.13
2019-04-26T08:57:01.278Z,986.13
2019-04-26T08:58:01.385Z,986.14
2019-04-26T08:59:01.517Z,986.13
2019-04-26T09:00:01.643Z,986.17
2019-04-26T09:01:01.777Z,986.21
2019-04-26T09:02:01.908Z,986.22
2019-04-26T09:03:11.273Z,986.26
2019-04-26T09:04:02.159Z,986.26
2019-04-26T09:05:02.304Z,986.21
2019-04-26T09:06:02.441Z,986.18
2019-04-26T09:07:02.572Z,986.21
2019-04-26T09:08:03.917Z,986.25
2019-04-26T09:09:02.935Z,986.27
2019-04-26T09:10:10.609Z,986.26
2019-04-26T09:11:03.073Z,986.27
2019-04-26T09:12:03.909Z,986.27
2019-04-26T09:13:03.346Z,986.25
2019-04-26T09:14:03.474Z,986.37
2019-04-26T09:15:03.641Z,986.30
2019-04-26T09:16:03.825Z,986.37
2019-04-26T09:17:03.894Z,986.35
2019-04-26T09:18:06.070Z,986.39
2019-04-26T09:19:04.204Z,986.36
2019-04-26T09:20:07.852Z,986.38
2019-04-26T09:21:04.451Z,986.42
2019-04-26T09:22:12.750Z,986.44
2019-04-26T09:23:05.042Z,986.44
2019-04-26T09:24:04.860Z,986.43
2019-04-26T09:25:04.994Z,986.39
2019-04-26T09:26:08.674Z,986.43
2019-04-26T09:27:05.272Z,986.39
2019-04-26T09:28:05.414Z,986.35
2019-04-26T09:29:05.545Z,986.33
2019-04-26T09:30:06.389Z,986.30
2019-04-26T09:31:05.821Z,986.36
2019-04-26T09:32:05.960Z,986.38
2019-04-26T09:33:06.119Z,986.40
2019-04-26T09:34:09.984Z,986.41
2019-04-26T09:35:06.354Z,986.43
2019-04-26T09:36:06.498Z,986.44
2019-04-26T09:37:06.624Z,986.42
2019-04-26T09:38:06.761Z,986.43
2019-04-26T09:39:08.294Z,986.41
2019-04-26T09:40:10.382Z,986.42
2019-04-26T09:41:07.173Z,986.45
2019-04-26T09:42:09.713Z,986.39
2019-04-26T09:43:10.376Z,986.35
2019-04-26T09:44:07.593Z,986.36
2019-04-26T09:45:07.712Z,986.39
2019-04-26T09:46:07.858Z,986.39
2019-04-26T09:47:08.013Z,986.39
2019-04-26T09:48:08.144Z,986.45
2019-04-26T09:49:08.546Z,986.43
2019-04-26T09:50:11.254Z,986.46
2019-04-26T09:51:08.566Z,986.43
2019-04-26T09:52:08.697Z,986.39
2019-04-26T09:53:08.829Z,986.43
2019-04-26T09:54:08.953Z,986.39
2019-04-26T09:55:09.079Z,986.41
2019-04-26T09:56:09.214Z,986.42
2019-04-26T09:57:09.352Z,986.37
2019-04-26T09:58:09.478Z,986.38
2019-04-26T09:59:09.616Z,986.49
2019-04-26T10:00:10.357Z,986.46
2019-04-26T10:01:09.866Z,986.53
2019-04-26T10:02:10.007Z,986.54
2019-04-26T10:03:10.816Z,986.58
2019-04-26T10:04:10.285Z,986.64
2019-04-26T10:05:12.168Z,986.66
2019-04-26T10:06:10.536Z,986.69
2019-04-26T10:07:10.668Z,986.70
2019-04-26T10:08:13.017Z,986.69
2019-04-26T10:09:10.936Z,986.66
2019-04-26T10:10:22.286Z,986.68
2019-04-26T10:11:11.200Z,986.68
2019-04-26T10:12:11.320Z,986.69
2019-04-26T10:13:11.469Z,986.66
2019-04-26T10:14:11.604Z,986.63
2019-04-26T10:15:11.736Z,986.56
2019-04-26T10:16:11.885Z,986.55
2019-04-26T10:17:15.555Z,986.55
2019-04-26T10:18:12.142Z,986.54
2019-04-26T10:19:12.270Z,986.56
2019-04-26T10:20:12.406Z,986.62
2019-04-26T10:21:12.569Z,986.60
2019-04-26T10:22:12.686Z,986.65
2019-04-26T10:23:12.825Z,986.61
2019-04-26T10:24:12.964Z,986.64
2019-04-26T10:25:16.504Z,986.68
2019-04-26T10:26:13.234Z,986.69
2019-04-26T10:27:13.368Z,986.69
2019-04-26T10:28:16.026Z,986.72
2019-04-26T10:29:13.643Z,986.71
2019-04-26T10:30:13.771Z,986.71
2019-04-26T10:31:17.201Z,986.68
2019-04-26T10:32:14.050Z,986.67
2019-04-26T10:33:14.192Z,986.66
2019-04-26T10:34:14.314Z,986.71
2019-04-26T10:35:17.512Z,986.65
2019-04-26T10:36:14.596Z,986.69
2019-04-26T10:37:14.717Z,986.68
2019-04-26T10:38:14.861Z,986.63
2019-04-26T10:39:14.990Z,986.66
2019-04-26T10:40:15.138Z,986.69
2019-04-26T10:41:15.268Z,986.72
2019-04-26T10:42:15.400Z,986.65
2019-04-26T10:43:15.524Z,986.63
2019-04-26T10:44:15.706Z,986.69
2019-04-26T10:45:16.323Z,986.74
2019-04-26T10:46:15.962Z,986.70
2019-04-26T10:47:16.111Z,986.72
2019-04-26T10:48:16.304Z,986.74
2019-04-26T10:49:16.427Z,986.73
2019-04-26T10:50:16.560Z,986.77
2019-04-26T10:51:16.708Z,986.74
2019-04-26T10:52:17.073Z,986.75
2019-04-26T10:53:16.962Z,986.72
2019-04-26T10:54:17.093Z,986.75
2019-04-26T10:55:17.530Z,986.72
2019-04-26T10:56:20.254Z,986.77
2019-04-26T10:57:17.492Z,986.78
2019-04-26T10:58:17.632Z,986.81
2019-04-26T10:59:17.774Z,986.79
2019-04-26T11:00:18.962Z,986.79
2019-04-26T11:01:18.038Z,986.81
2019-04-26T11:02:18.157Z,986.77
2019-04-26T11:03:18.343Z,986.76
2019-04-26T11:04:18.416Z,986.74
2019-04-26T11:05:19.479Z,986.67
2019-04-26T11:06:18.688Z,986.68
2019-04-26T11:07:18.832Z,986.61
2019-04-26T11:08:18.966Z,986.65
2019-04-26T11:09:19.100Z,986.63
2019-04-26T11:10:19.220Z,986.64
2019-04-26T11:11:19.356Z,986.67
2019-04-26T11:12:19.492Z,986.67
2019-04-26T11:13:19.617Z,986.65
2019-04-26T11:14:22.597Z,986.66
2019-04-26T11:15:19.912Z,986.68
2019-04-26T11:16:20.033Z,986.64
2019-04-26T11:17:20.167Z,986.64
2019-04-26T11:18:27.366Z,986.69
2019-04-26T11:19:20.469Z,986.64
2019-04-26T11:20:20.598Z,986.67
2019-04-26T11:21:22.287Z,986.65
2019-04-26T11:22:29.086Z,986.65
2019-04-26T11:23:21.006Z,986.64
2019-04-26T11:24:21.145Z,986.64
2019-04-26T11:25:24.727Z,986.64
2019-04-26T11:26:21.434Z,986.67
2019-04-26T11:27:21.578Z,986.71
2019-04-26T11:28:22.965Z,986.66
2019-04-26T11:29:24.958Z,986.70
2019-04-26T11:30:22.076Z,986.72
2019-04-26T11:31:23.444Z,986.67
2019-04-26T11:32:22.244Z,986.69
2019-04-26T11:33:22.389Z,986.69
2019-04-26T11:34:23.691Z,986.66
2019-04-26T11:35:22.637Z,986.65
2019-04-26T11:36:22.774Z,986.70
2019-04-26T11:37:22.932Z,986.63
2019-04-26T11:38:26.900Z,986.68
2019-04-26T11:39:23.199Z,986.66
2019-04-26T11:40:23.310Z,986.62
2019-04-26T11:41:23.499Z,986.64
2019-04-26T11:42:23.597Z,986.64
2019-04-26T11:43:23.727Z,986.69
2019-04-26T11:44:27.562Z,986.67
2019-04-26T11:45:24.004Z,986.75
2019-04-26T11:46:29.209Z,986.76
2019-04-26T11:47:24.291Z,986.86
2019-04-26T11:48:25.414Z,986.85
2019-04-26T11:49:24.583Z,986.88
2019-04-26T11:50:24.707Z,986.82
2019-04-26T11:51:27.595Z,986.88
2019-04-26T11:52:24.970Z,986.82
2019-04-26T11:53:25.128Z,986.84
2019-04-26T11:54:25.255Z,986.88
2019-04-26T11:55:29.613Z,986.88
2019-04-26T11:56:25.523Z,986.89
2019-04-26T11:57:25.670Z,986.89
2019-04-26T11:58:25.812Z,986.93
2019-04-26T11:59:27.106Z,986.90
2019-04-26T12:00:27.520Z,986.89
2019-04-26T12:01:26.217Z,986.93
2019-04-26T12:02:26.334Z,986.99
2019-04-26T12:03:26.464Z,986.99
2019-04-26T12:04:26.589Z,986.98
2019-04-26T12:05:26.738Z,987.03
2019-04-26T12:06:26.872Z,987.03
2019-04-26T12:07:27.005Z,987.03
2019-04-26T12:08:27.135Z,987.13
2019-04-26T12:09:27.285Z,987.15
2019-04-26T12:10:27.424Z,987.16
2019-04-26T12:11:34.144Z,987.21
2019-04-26T12:12:27.715Z,987.23
2019-04-26T12:13:27.940Z,987.22
2019-04-26T12:14:29.454Z,987.21
2019-04-26T12:15:30.419Z,987.20
2019-04-26T12:16:28.215Z,987.15
2019-04-26T12:17:31.252Z,987.16
2019-04-26T12:18:28.531Z,987.21
2019-04-26T12:19:28.655Z,987.24
2019-04-26T12:20:28.744Z,987.28
2019-04-26T12:21:30.496Z,987.31
2019-04-26T12:22:29.008Z,987.33
2019-04-26T12:23:29.154Z,987.29
2019-04-26T12:24:30.749Z,987.29
2019-04-26T12:25:31.070Z,987.22
2019-04-26T12:26:42.129Z,987.21
2019-04-26T12:27:30.706Z,987.18
2019-04-26T12:28:29.844Z,987.22
2019-04-26T12:29:29.993Z,987.27
2019-04-26T12:30:30.136Z,987.39